Time;durP1;ratioP1;P1;durP2;ratioP2;P2;SDS_P1;SDS_P2;PMS_P1;PMS_P2;Temp;Humidity;BMP_temperature;BMP_pressure;BME280_temperature;BME280_humidity;BME280_pressure;Samples;Min_cycle;Max_cycle;Signal;HPM_P1;HPM_P2
2021/12/29 00:01:06;;;;;;;3.20;1.00;;;;;;;-5.53;72.11;99409.41;1702283;82;20961;-50
2021/12/29 00:03:32;;;;;;;3.07;0.93;;;;;;;-5.50;72.02;99413.38;1707595;82;20994;-50
2021/12/29 00:05:59;;;;;;;4.87;1.50;;;;;;;-5.49;71.89;99409.02;1713308;82;20936;-49
2021/12/29 00:08:26;;;;;;;3.90;1.10;;;;;;;-5.51;71.88;99409.42;1699475;82;21145;-50
2021/12/29 00:10:55;;;;;;;4.83;1.60;;;;;;;-5.50;71.97;99413.81;1699060;82;21093;-50
2021/12/29 00:13:23;;;;;;;3.43;1.30;;;;;;;-5.52;71.78;99414.22;1696997;82;21037;-49
2021/12/29 00:15:57;;;;;;;5.37;1.30;;;;;;;-5.55;71.90;99423.39;1696329;82;21060;-50
2021/12/29 00:18:19;;;;;;;4.10;1.53;;;;;;;-5.54;71.93;99419.91;1712406;82;21040;-56
2021/12/29 00:20:45;;;;;;;5.57;1.30;;;;;;;-5.53;71.99;99426.92;1699501;82;21121;-49
2021/12/29 00:23:12;;;;;;;3.70;1.60;;;;;;;-5.51;71.97;99426.05;1698207;82;21053;-49
2021/12/29 00:25:38;;;;;;;5.47;1.30;;;;;;;-5.51;71.85;99418.61;1703778;82;21009;-49
2021/12/29 00:28:04;;;;;;;6.13;1.30;;;;;;;-5.54;71.91;99418.59;1698308;82;21327;-49
2021/12/29 00:30:31;;;;;;;6.93;1.90;;;;;;;-5.57;71.95;99408.95;1696594;82;21025;-49
2021/12/29 00:32:58;;;;;;;4.93;1.43;;;;;;;-5.58;72.08;99414.17;1699512;82;22191;-49
2021/12/29 00:35:44;;;;;;;7.63;1.70;;;;;;;-5.56;72.10;99415.07;1700557;82;21060;-49
2021/12/29 00:38:29;;;;;;;5.03;2.37;;;;;;;-5.56;72.09;99401.53;1698843;82;20977;-50
2021/12/29 00:41:02;;;;;;;3.23;1.20;;;;;;;-5.55;72.01;99405.91;1699034;82;21138;-49
2021/12/29 00:46:37;;;;;;;3.77;1.90;;;;;;;-5.51;71.90;99395.89;1857324;75;26047;-64
2021/12/29 00:49:05;;;;;;;5.80;1.37;;;;;;;-5.62;71.65;99392.30;1845328;75;21487;-65
2021/12/29 00:51:35;;;;;;;6.07;1.90;;;;;;;-5.69;71.96;99384.33;1842627;77;21202;-64
2021/12/29 00:54:03;;;;;;;4.70;1.67;;;;;;;-5.68;72.03;99389.59;1854255;75;21109;-65
2021/12/29 00:56:30;;;;;;;5.70;1.53;;;;;;;-5.68;72.00;99393.52;1844980;75;21104;-65
2021/12/29 00:58:57;;;;;;;7.27;1.97;;;;;;;-5.72;71.88;99380.83;1850627;75;20967;-64
2021/12/29 01:01:24;;;;;;;7.27;2.03;;;;;;;-5.75;72.11;99374.23;1849575;75;21073;-63
2021/12/29 01:03:50;;;;;;;6.57;1.60;;;;;;;-5.72;72.13;99368.16;1851456;75;21966;-64
2021/12/29 01:06:16;;;;;;;5.07;1.80;;;;;;;-5.70;72.10;99367.75;1854495;75;20968;-68
2021/12/29 01:08:43;;;;;;;5.77;2.17;;;;;;;-5.70;71.95;99358.57;1853750;75;21020;-64
2021/12/29 01:11:09;;;;;;;10.93;2.87;;;;;;;-5.79;71.83;99350.17;1861392;75;21012;-63
2021/12/29 01:13:44;;;;;;;9.30;2.07;;;;;;;-5.86;71.93;99351.38;1843634;75;21038;-63
2021/12/29 01:18:35;;;;;;;6.07;2.00;;;;;;;-5.87;72.07;99349.65;1853347;76;21097;-63
2021/12/29 01:21:01;;;;;;;9.93;1.73;;;;;;;-5.91;72.14;99347.45;1848578;75;21032;-64
2021/12/29 01:23:28;;;;;;;8.10;2.43;;;;;;;-5.90;72.19;99337.84;1852608;75;21605;-64
2021/12/29 01:25:54;;;;;;;7.70;2.37;;;;;;;-5.93;72.16;99340.42;1845438;75;21547;-63
2021/12/29 01:28:20;;;;;;;7.07;2.17;;;;;;;-5.92;72.29;99347.42;1848375;75;21171;-63
2021/12/29 01:30:47;;;;;;;7.20;2.40;;;;;;;-5.91;72.30;99336.97;1854104;75;21030;-65
2021/12/29 01:33:15;;;;;;;5.20;2.07;;;;;;;-5.88;72.44;99340.94;1848207;75;21072;-65
2021/12/29 01:35:43;;;;;;;3.60;1.20;;;;;;;-5.84;72.40;99346.61;1848787;75;21038;-67
2021/12/29 01:38:10;;;;;;;4.50;1.43;;;;;;;-5.80;72.29;99341.86;1852775;75;21074;-64
2021/12/29 01:40:37;;;;;;;4.13;1.53;;;;;;;-5.82;72.22;99355.80;1844159;75;22154;-65
2021/12/29 01:43:06;;;;;;;3.67;1.43;;;;;;;-5.86;72.31;99358.81;1850844;75;21056;-65
2021/12/29 01:45:33;;;;;;;6.53;2.10;;;;;;;-5.86;72.40;99357.50;1846716;75;21043;-64
2021/12/29 01:48:02;;;;;;;12.37;4.03;;;;;;;-5.82;72.41;99363.23;1851685;75;21015;-66
2021/12/29 01:50:30;;;;;;;4.43;1.37;;;;;;;-5.81;72.43;99358.88;1848314;75;21113;-66
2021/12/29 01:53:07;;;;;;;3.40;1.60;;;;;;;-5.86;72.41;99361.44;1850370;75;21148;-68
2021/12/29 01:55:31;;;;;;;4.80;1.77;;;;;;;-5.89;72.51;99360.14;1855118;76;20923;-63
2021/12/29 01:57:59;;;;;;;4.60;1.50;;;;;;;-5.89;72.64;99368.44;1857016;75;21074;-64
2021/12/29 02:00:28;;;;;;;4.87;1.20;;;;;;;-5.85;72.68;99357.07;1848080;75;21101;-66
2021/12/29 02:02:55;;;;;;;4.97;2.13;;;;;;;-5.82;72.74;99350.13;1849856;75;21101;-65
2021/12/29 02:05:21;;;;;;;8.00;1.67;;;;;;;-5.81;72.62;99348.39;1851139;75;21792;-65
2021/12/29 02:07:49;;;;;;;4.70;1.60;;;;;;;-5.84;72.66;99341.80;1850047;75;21487;-64
2021/12/29 02:10:17;;;;;;;6.70;2.10;;;;;;;-5.83;72.87;99340.51;1847377;75;21375;-62
2021/12/29 02:12:44;;;;;;;8.77;3.07;;;;;;;-5.83;72.85;99335.27;1850317;75;21005;-63
2021/12/29 02:15:11;;;;;;;6.53;2.37;;;;;;;-5.80;72.86;99335.73;1848617;75;21229;-64
2021/12/29 02:17:38;;;;;;;6.20;1.83;;;;;;;-5.79;72.86;99329.64;1847731;75;22021;-68
2021/12/29 02:20:11;;;;;;;6.80;2.10;;;;;;;-5.77;72.81;99327.88;1846858;75;21029;-65
2021/12/29 02:22:46;;;;;;;6.40;1.93;;;;;;;-5.79;72.88;99321.34;1854767;75;21313;-64
2021/12/29 02:27:52;;;;;;;13.17;5.77;;;;;;;-5.80;72.92;99314.77;1849520;75;22003;-66
2021/12/29 02:30:22;;;;;;;12.07;4.53;;;;;;;-5.80;73.01;99314.34;1855544;75;20927;-67
2021/12/29 02:32:49;;;;;;;6.53;2.63;;;;;;;-5.79;73.04;99320.03;1849359;76;21020;-64
2021/12/29 02:35:16;;;;;;;5.27;1.63;;;;;;;-5.82;73.09;99312.12;1851030;76;21093;-67
2021/12/29 02:37:43;;;;;;;6.17;1.50;;;;;;;-5.80;73.16;99313.03;1805188;77;21046;-68
2021/12/29 02:40:10;;;;;;;5.57;1.80;;;;;;;-5.80;73.20;99316.08;1777922;78;21085;-67
2021/12/29 02:42:41;;;;;;;4.93;1.60;;;;;;;-5.84;73.13;99311.66;1780691;78;21152;-66
2021/12/29 02:45:14;;;;;;;7.87;1.67;;;;;;;-5.89;73.21;99313.39;1779514;77;21596;-66
2021/12/29 02:47:41;;;;;;;6.03;2.53;;;;;;;-5.91;73.41;99307.25;1775681;79;20879;-65
2021/12/29 02:50:09;;;;;;;6.37;1.60;;;;;;;-5.91;73.47;99301.58;1814220;77;20951;-66
2021/12/29 02:52:36;;;;;;;4.93;1.73;;;;;;;-5.96;73.56;99301.09;1819369;77;20868;-66
2021/12/29 02:55:02;;;;;;;4.33;1.50;;;;;;;-6.02;73.58;99297.08;1813309;77;21100;-67
2021/12/29 02:57:29;;;;;;;7.07;2.30;;;;;;;-6.02;73.83;99299.70;1811032;77;20891;-64
2021/12/29 02:59:55;;;;;;;6.20;1.67;;;;;;;-6.00;73.85;99296.67;1809540;78;20923;-63
2021/12/29 03:02:21;;;;;;;4.23;1.60;;;;;;;-5.98;73.94;99301.08;1811286;77;21119;-64
2021/12/29 03:04:48;;;;;;;4.87;1.60;;;;;;;-5.96;73.91;99299.79;1815559;77;21076;-64
2021/12/29 03:07:14;;;;;;;6.07;1.57;;;;;;;-5.94;73.92;99305.91;1778536;78;23301;-64
2021/12/29 03:09:40;;;;;;;4.33;1.60;;;;;;;-5.90;73.94;99302.03;1782796;78;21069;-65
2021/12/29 03:12:07;;;;;;;5.27;1.90;;;;;;;-5.87;73.95;99302.47;1783942;78;21119;-65
2021/12/29 03:14:33;;;;;;;3.77;1.10;;;;;;;-5.83;73.92;99308.17;1807220;77;21090;-67
2021/12/29 03:17:00;;;;;;;5.90;1.87;;;;;;;-5.85;73.79;99313.83;1809385;77;21076;-67
2021/12/29 03:19:26;;;;;;;3.50;1.53;;;;;;;-5.87;73.86;99309.02;1809808;77;21597;-67
2021/12/29 03:21:53;;;;;;;7.63;1.80;;;;;;;-5.84;73.90;99311.66;1807752;77;21340;-65
2021/12/29 03:24:21;;;;;;;3.33;1.30;;;;;;;-5.82;74.02;99318.67;1807846;77;21046;-66
2021/12/29 03:26:48;;;;;;;8.70;2.53;;;;;;;-5.77;73.97;99313.47;1807555;77;21103;-65
2021/12/29 03:29:14;;;;;;;4.87;2.10;;;;;;;-5.70;73.80;99301.32;1811770;77;21894;-65
2021/12/29 03:31:42;;;;;;;17.20;6.17;;;;;;;-5.70;73.65;99307.45;1806793;77;21781;-67
2021/12/29 03:34:09;;;;;;;11.53;4.30;;;;;;;-5.74;73.57;99294.73;1805854;77;22611;-66
2021/12/29 03:36:35;;;;;;;9.63;3.07;;;;;;;-5.73;73.65;99296.92;1801259;77;21064;-63
2021/12/29 03:39:02;;;;;;;17.63;3.63;;;;;;;-5.77;73.49;99295.12;1775345;78;21100;-65
2021/12/29 03:41:28;;;;;;;6.37;2.43;;;;;;;-5.79;73.59;99297.75;1782280;78;20875;-65
2021/12/29 03:43:54;;;;;;;4.00;1.97;;;;;;;-5.78;73.58;99298.17;1810266;77;21103;-63
2021/12/29 03:46:21;;;;;;;5.40;1.47;;;;;;;-5.77;73.61;99293.38;1807491;77;21373;-66
2021/12/29 03:48:48;;;;;;;5.97;1.67;;;;;;;-5.74;73.53;99292.53;1805835;78;20876;-68
2021/12/29 03:51:14;;;;;;;7.40;1.53;;;;;;;-5.73;73.47;99299.54;1803505;77;22170;-65
2021/12/29 03:53:41;;;;;;;4.57;1.33;;;;;;;-5.77;73.47;99296.00;1803137;78;21065;-66
2021/12/29 03:56:07;;;;;;;5.23;1.30;;;;;;;-5.76;73.49;99308.24;1781882;78;23365;-65
2021/12/29 03:58:34;;;;;;;4.23;1.00;;;;;;;-5.76;73.49;99308.67;1782213;78;21089;-65
2021/12/29 04:01:05;;;;;;;4.47;1.40;;;;;;;-5.73;73.53;99307.41;1781483;78;21281;-67
2021/12/29 04:03:33;;;;;;;4.30;1.97;;;;;;;-5.68;73.52;99300.45;1788125;78;20905;-64
2021/12/29 04:05:59;;;;;;;5.00;1.50;;;;;;;-5.63;73.32;99306.63;1807684;77;20998;-67
2021/12/29 04:08:26;;;;;;;4.40;1.30;;;;;;;-5.63;73.35;99302.70;1767326;79;21153;-67
2021/12/29 04:10:52;;;;;;;4.03;1.20;;;;;;;-5.61;73.24;99306.19;1781153;78;21048;-66
2021/12/29 04:13:19;;;;;;;3.20;1.40;;;;;;;-5.60;73.25;99307.06;1783056;78;21096;-63
2021/12/29 04:15:45;;;;;;;3.13;1.47;;;;;;;-5.62;73.11;99306.20;1785622;78;21077;-63
2021/12/29 04:18:15;;;;;;;3.53;1.27;;;;;;;-5.64;73.21;99303.56;1781073;78;21119;-67
2021/12/29 04:20:55;;;;;;;4.60;1.37;;;;;;;-5.61;73.07;99306.66;1804800;78;21142;-66
2021/12/29 04:23:28;;;;;;;6.20;1.33;;;;;;;-5.64;73.13;99300.94;1807928;77;21034;-65
2021/12/29 04:25:55;;;;;;;4.43;1.80;;;;;;;-5.65;73.15;99307.04;1801608;78;20999;-66
2021/12/29 04:28:23;;;;;;;4.77;1.30;;;;;;;-5.68;73.15;99301.76;1803670;78;21077;-67
2021/12/29 04:30:54;;;;;;;3.53;1.00;;;;;;;-5.67;73.32;99300.02;1803218;78;21498;-64
2021/12/29 04:33:21;;;;;;;3.60;1.50;;;;;;;-5.64;73.27;99293.50;1802626;78;21587;-65
2021/12/29 04:35:47;;;;;;;4.40;1.57;;;;;;;-5.62;73.20;99293.97;1799344;77;21029;-64
2021/12/29 04:38:13;;;;;;;6.47;1.47;;;;;;;-5.58;73.16;99289.18;1804575;78;21079;-67
2021/12/29 04:40:42;;;;;;;4.33;1.50;;;;;;;-5.56;73.15;99296.64;1802858;78;21032;-62
2021/12/29 04:43:08;;;;;;;4.20;1.90;;;;;;;-5.54;72.95;99290.98;1801438;78;21100;-65
2021/12/29 04:45:39;;;;;;;3.97;1.50;;;;;;;-5.53;72.88;99289.23;1803981;77;21136;-65
2021/12/29 04:48:11;;;;;;;6.07;1.77;;;;;;;-5.56;72.98;99288.77;1806839;77;21123;-67
2021/12/29 04:50:38;;;;;;;6.70;1.30;;;;;;;-5.55;72.96;99291.84;1808299;77;21643;-66
2021/12/29 04:53:06;;;;;;;4.63;1.40;;;;;;;-5.56;72.89;99283.52;1806399;77;21081;-64
2021/12/29 04:55:33;;;;;;;4.87;1.60;;;;;;;-5.56;72.82;99286.58;1811803;77;20933;-67
2021/12/29 04:58:00;;;;;;;4.53;1.57;;;;;;;-5.57;72.91;99295.30;1803994;77;21100;-66
2021/12/29 05:00:29;;;;;;;3.70;1.00;;;;;;;-5.53;72.94;99303.66;1778847;78;21735;-65
2021/12/29 05:02:56;;;;;;;4.73;2.10;;;;;;;-5.51;72.92;99296.23;1759853;79;21675;-68
2021/12/29 05:10:45;;;;;;;3.57;1.20;;;;;;;-5.55;72.81;99293.16;1787070;78;21446;-66
2021/12/29 05:13:11;;;;;;;3.03;1.50;;;;;;;-5.53;72.73;99295.33;1785351;78;21388;-63
2021/12/29 05:15:37;;;;;;;3.73;1.33;;;;;;;-5.55;72.80;99295.77;1785576;78;21112;-67
2021/12/29 05:18:04;;;;;;;5.73;1.50;;;;;;;-5.54;72.80;99290.98;1790786;78;21060;-64
2021/12/29 05:20:30;;;;;;;5.10;1.60;;;;;;;-5.54;72.82;99289.66;1790479;78;20881;-67
2021/12/29 05:22:58;;;;;;;7.17;2.37;;;;;;;-5.54;72.83;99296.22;1793513;78;21219;-67
2021/12/29 05:25:24;;;;;;;16.27;7.10;;;;;;;-5.53;72.84;99283.53;1792094;78;21522;-67
2021/12/29 05:27:53;;;;;;;15.07;6.10;;;;;;;-5.51;72.84;99288.79;1790966;78;21259;-66
2021/12/29 05:30:19;;;;;;;11.10;4.00;;;;;;;-5.53;72.75;99294.02;1792709;78;21562;-68
2021/12/29 05:32:46;;;;;;;12.27;4.27;;;;;;;-5.51;72.77;99297.97;1790716;78;21447;-68
2021/12/29 05:35:12;;;;;;;19.00;5.93;;;;;;;-5.53;72.83;99294.48;1794302;78;21092;-66
2021/12/29 05:37:39;;;;;;;52.63;15.53;;;;;;;-5.49;72.93;99300.18;1793602;78;20902;-67
2021/12/29 05:40:06;;;;;;;54.63;17.30;;;;;;;-5.44;72.94;99310.27;1792489;78;20906;-67
2021/12/29 05:42:35;;;;;;;45.57;14.13;;;;;;;-5.41;72.75;99304.62;1793481;78;20882;-66
2021/12/29 05:45:05;;;;;;;31.70;8.87;;;;;;;-5.44;72.76;99306.33;1791156;78;21252;-66
2021/12/29 05:47:32;;;;;;;26.17;7.83;;;;;;;-5.42;72.78;99307.23;1791018;78;21053;-65
2021/12/29 05:50:01;;;;;;;24.73;7.87;;;;;;;-5.42;72.82;99308.11;1791234;78;20955;-65
2021/12/29 05:52:28;;;;;;;11.23;3.37;;;;;;;-5.42;72.83;99302.86;1812032;77;20959;-66
2021/12/29 05:54:54;;;;;;;14.40;3.77;;;;;;;-5.38;72.92;99298.53;1781260;78;20867;-67
2021/12/29 05:57:21;;;;;;;13.17;3.27;;;;;;;-5.37;72.71;99299.86;1781178;78;20924;-66
2021/12/29 05:59:47;;;;;;;10.77;3.30;;;;;;;-5.39;72.78;99302.02;1779836;78;21153;-66
2021/12/29 06:02:14;;;;;;;9.70;2.93;;;;;;;-5.39;72.84;99297.66;1755983;79;21060;-64
2021/12/29 06:04:40;;;;;;;8.57;3.10;;;;;;;-5.37;72.77;99301.17;1786567;78;21458;-66
2021/12/29 06:07:06;;;;;;;6.07;2.33;;;;;;;-5.37;72.84;99301.61;1792294;78;21418;-64
2021/12/29 06:09:33;;;;;;;6.17;2.33;;;;;;;-5.36;72.67;99301.59;1790192;78;21036;-65
2021/12/29 06:11:59;;;;;;;7.93;2.23;;;;;;;-5.38;72.66;99302.47;1788670;78;21031;-66
2021/12/29 06:14:25;;;;;;;7.43;2.63;;;;;;;-5.39;72.77;99303.33;1807996;77;21100;-65
2021/12/29 06:16:52;;;;;;;8.30;2.77;;;;;;;-5.36;72.87;99304.21;1777961;78;21379;-65
2021/12/29 06:19:23;;;;;;;6.57;2.60;;;;;;;-5.29;72.87;99300.34;1775588;78;21648;-68
2021/12/29 06:21:47;;;;;;;12.17;3.50;;;;;;;-5.26;72.83;99299.92;1760999;79;21347;-66
2021/12/29 06:24:14;;;;;;;7.00;3.10;;;;;;;-5.23;72.78;99295.14;1776555;78;21181;-66
2021/12/29 06:26:41;;;;;;;5.37;2.30;;;;;;;-5.22;72.68;99291.66;1790045;78;21721;-65
2021/12/29 06:29:07;;;;;;;8.27;2.90;;;;;;;-5.19;72.72;99295.62;1794637;78;21044;-65
2021/12/29 06:31:36;;;;;;;6.13;2.37;;;;;;;-5.13;72.78;99293.91;1768864;78;21206;-66
2021/12/29 06:34:02;;;;;;;8.73;3.13;;;;;;;-5.05;72.54;99296.58;1794015;78;21428;-65
2021/12/29 06:36:29;;;;;;;5.30;2.77;;;;;;;-5.04;72.30;99291.78;1793486;78;21107;-65
2021/12/29 06:38:55;;;;;;;8.13;3.57;;;;;;;-5.09;72.20;99298.30;1789338;78;21053;-66
2021/12/29 06:41:24;;;;;;;4.40;2.47;;;;;;;-5.13;72.26;99301.78;1790984;78;22025;-66
2021/12/29 06:43:50;;;;;;;11.07;3.60;;;;;;;-5.12;72.45;99303.97;1792980;79;21056;-67
2021/12/29 06:46:17;;;;;;;17.03;6.47;;;;;;;-5.08;72.35;99302.68;1794063;78;21613;-64
2021/12/29 06:48:43;;;;;;;20.30;7.73;;;;;;;-5.07;72.27;99306.19;1788181;78;21762;-66
2021/12/29 06:51:10;;;;;;;15.53;6.07;;;;;;;-5.08;72.28;99303.98;1801857;77;22467;-65
2021/12/29 06:53:36;;;;;;;22.57;7.77;;;;;;;-5.02;72.29;99303.17;1777780;78;21112;-65
2021/12/29 06:56:05;;;;;;;28.63;9.57;;;;;;;-5.02;72.12;99305.34;1813875;77;21137;-66
2021/12/29 06:58:33;;;;;;;34.57;12.53;;;;;;;-5.03;72.06;99298.79;1775180;78;21091;-68
2021/12/29 07:01:00;;;;;;;33.00;11.27;;;;;;;-5.01;72.09;99308.41;1764281;79;21140;-65
2021/12/29 07:03:27;;;;;;;36.87;13.97;;;;;;;-4.98;72.09;99301.88;1807011;77;21080;-63
2021/12/29 07:05:54;;;;;;;45.80;16.50;;;;;;;-4.96;71.93;99308.02;1802690;77;21091;-64
2021/12/29 07:08:22;;;;;;;38.33;13.17;;;;;;;-4.97;71.96;99308.01;1809962;77;21048;-64
2021/12/29 07:10:48;;;;;;;19.23;6.60;;;;;;;-4.97;72.03;99314.57;1810403;78;21344;-65
2021/12/29 07:13:15;;;;;;;11.37;4.83;;;;;;;-4.96;72.07;99311.08;1808648;77;22724;-62
2021/12/29 07:15:42;;;;;;;26.10;8.43;;;;;;;-4.92;72.14;99314.16;1777119;78;21075;-64
2021/12/29 07:18:08;;;;;;;7.80;3.27;;;;;;;-4.90;72.12;99310.23;1779960;78;21100;-64
2021/12/29 07:20:35;;;;;;;9.70;3.23;;;;;;;-4.87;71.94;99311.58;1778815;78;21081;-65
2021/12/29 07:23:02;;;;;;;3.90;2.20;;;;;;;-4.87;71.69;99303.27;1777406;78;21148;-66
2021/12/29 07:25:29;;;;;;;5.07;3.07;;;;;;;-4.89;71.68;99305.42;1810407;77;21101;-68
2021/12/29 07:27:58;;;;;;;6.77;2.87;;;;;;;-4.92;71.54;99307.59;1781133;78;21763;-64
2021/12/29 07:30:25;;;;;;;6.77;3.27;;;;;;;-4.98;71.54;99309.75;1782962;78;21568;-66
2021/12/29 07:32:51;;;;;;;7.23;2.07;;;;;;;-5.01;71.55;99311.47;1796132;78;21076;-65
2021/12/29 07:35:18;;;;;;;10.20;2.40;;;;;;;-5.05;71.53;99309.27;1793409;78;21042;-63
2021/12/29 07:37:45;;;;;;;7.17;3.47;;;;;;;-5.07;71.54;99311.44;1791066;78;21115;-64
2021/12/29 07:40:13;;;;;;;5.77;2.73;;;;;;;-5.10;71.58;99311.40;1795331;78;21060;-68
2021/12/29 07:42:41;;;;;;;7.00;3.13;;;;;;;-5.10;71.74;99313.59;1795019;78;21064;-66
2021/12/29 07:45:09;;;;;;;6.03;2.27;;;;;;;-5.06;71.79;99312.77;1793160;78;21071;-65
2021/12/29 07:47:47;;;;;;;7.17;3.30;;;;;;;-5.04;71.70;99314.09;1797081;77;21028;-63
2021/12/29 07:50:07;;;;;;;10.43;3.17;;;;;;;-5.11;71.61;99310.98;1792475;78;21200;-64
2021/12/29 07:52:34;;;;;;;7.37;2.90;;;;;;;-5.14;71.75;99314.45;1794686;78;21009;-64
2021/12/29 07:55:00;;;;;;;7.03;2.60;;;;;;;-5.15;71.80;99311.38;1789505;78;21473;-64
2021/12/29 07:57:27;;;;;;;7.47;3.03;;;;;;;-5.18;71.78;99309.16;1792418;78;21626;-65
2021/12/29 07:59:54;;;;;;;9.13;3.30;;;;;;;-5.23;71.87;99315.70;1792542;78;21087;-64
2021/12/29 08:02:27;;;;;;;7.67;3.83;;;;;;;-5.23;72.09;99314.38;1793579;78;21264;-67
2021/12/29 08:04:49;;;;;;;9.07;2.40;;;;;;;-5.16;72.30;99318.80;1791891;78;21450;-66
2021/12/29 08:07:15;;;;;;;7.10;3.53;;;;;;;-5.06;72.31;99314.08;1794346;78;22493;-65
2021/12/29 08:09:41;;;;;;;8.17;3.70;;;;;;;-4.97;72.16;99308.01;1793159;78;21074;-67
2021/12/29 08:12:09;;;;;;;10.43;3.63;;;;;;;-4.90;72.09;99312.86;1790122;78;21046;-65
2021/12/29 08:14:35;;;;;;;9.90;3.53;;;;;;;-4.85;71.97;99312.03;1795294;78;21164;-65
2021/12/29 08:17:03;;;;;;;8.07;3.63;;;;;;;-4.84;71.68;99308.95;1792685;78;21055;-66
2021/12/29 08:19:31;;;;;;;7.10;3.00;;;;;;;-4.90;71.60;99312.42;1795673;78;21119;-63
2021/12/29 08:21:57;;;;;;;10.77;3.77;;;;;;;-4.91;71.73;99313.72;1789301;78;21091;-66
2021/12/29 08:24:24;;;;;;;7.27;4.03;;;;;;;-4.85;71.84;99312.03;1794322;78;21096;-66
2021/12/29 08:26:50;;;;;;;9.23;4.17;;;;;;;-4.78;71.72;99317.77;1789011;78;21239;-67
2021/12/29 08:29:16;;;;;;;17.47;4.57;;;;;;;-4.74;71.47;99312.08;1789599;78;22276;-64
2021/12/29 08:31:43;;;;;;;9.00;3.97;;;;;;;-4.75;71.56;99307.25;1788818;78;21425;-68
2021/12/29 08:34:10;;;;;;;6.87;3.90;;;;;;;-4.68;71.56;99305.56;1790237;78;21368;-66
2021/12/29 08:36:36;;;;;;;11.90;4.47;;;;;;;-4.64;71.38;99304.70;1791335;78;20943;-68
2021/12/29 08:39:03;;;;;;;10.70;5.63;;;;;;;-4.63;71.32;99303.39;1790339;78;21079;-67
2021/12/29 08:41:31;;;;;;;11.07;4.60;;;;;;;-4.60;71.34;99307.36;1791088;78;21411;-69
2021/12/29 08:43:58;;;;;;;10.23;4.70;;;;;;;-4.57;71.47;99300.79;1791516;78;20952;-68
2021/12/29 08:46:26;;;;;;;11.97;5.43;;;;;;;-4.52;71.45;99310.45;1791436;78;20920;-64
2021/12/29 08:48:53;;;;;;;11.97;6.00;;;;;;;-4.44;71.40;99309.63;1795070;78;20919;-65
2021/12/29 08:51:19;;;;;;;13.03;5.53;;;;;;;-4.36;71.15;99303.96;1794479;78;21087;-64
2021/12/29 08:53:46;;;;;;;11.20;4.67;;;;;;;-4.29;70.83;99306.17;1790646;78;21062;-66
2021/12/29 08:56:14;;;;;;;10.90;5.73;;;;;;;-4.30;70.66;99310.55;1791586;78;21046;-67
2021/12/29 08:58:41;;;;;;;12.60;4.37;;;;;;;-4.33;70.59;99301.76;1804558;78;21018;-68
2021/12/29 09:01:08;;;;;;;10.60;5.33;;;;;;;-4.34;70.59;99304.82;1794386;78;21057;-66
2021/12/29 09:03:34;;;;;;;13.47;5.93;;;;;;;-4.41;70.29;99295.16;1790340;78;22555;-67
2021/12/29 09:06:02;;;;;;;18.30;6.77;;;;;;;-4.44;70.40;99294.30;1793915;78;21054;-66
2021/12/29 09:08:29;;;;;;;20.53;6.43;;;;;;;-4.44;70.41;99296.92;1792726;78;21246;-63
2021/12/29 09:10:55;;;;;;;16.73;7.50;;;;;;;-4.44;70.48;99294.30;1792921;78;21124;-67
2021/12/29 09:13:22;;;;;;;20.20;8.73;;;;;;;-4.41;70.46;99290.34;1793563;78;22309;-65
2021/12/29 09:15:49;;;;;;;15.73;7.97;;;;;;;-4.37;70.54;99295.63;1794405;78;21120;-66
2021/12/29 09:18:17;;;;;;;15.30;6.83;;;;;;;-4.32;70.54;99296.95;1791696;78;21027;-63
2021/12/29 09:20:45;;;;;;;14.27;6.90;;;;;;;-4.30;70.39;99301.78;1791556;78;21046;-64
2021/12/29 09:23:13;;;;;;;15.93;7.07;;;;;;;-4.30;70.35;99297.84;1787929;78;21060;-65
2021/12/29 09:25:41;;;;;;;12.97;6.37;;;;;;;-4.29;70.23;99308.36;1793391;78;20962;-63
2021/12/29 09:28:09;;;;;;;16.13;6.97;;;;;;;-4.27;70.22;99311.00;1790983;78;21134;-66
2021/12/29 09:30:38;;;;;;;17.50;7.53;;;;;;;-4.27;70.11;99305.31;1792281;78;21658;-65
2021/12/29 09:33:07;;;;;;;17.70;6.70;;;;;;;-4.27;70.02;99309.69;1795660;78;20949;-68
2021/12/29 09:35:33;;;;;;;18.23;10.90;;;;;;;-4.27;70.05;99304.44;1797664;78;20984;-67
2021/12/29 09:37:59;;;;;;;13.77;8.40;;;;;;;-4.24;70.17;99308.36;1792698;78;21093;-67
2021/12/29 09:40:26;;;;;;;15.43;8.00;;;;;;;-4.16;70.15;99298.75;1791390;78;21141;-65
2021/12/29 09:42:53;;;;;;;17.40;9.07;;;;;;;-4.11;70.11;99301.41;1792454;78;21606;-68
2021/12/29 09:45:21;;;;;;;15.60;7.53;;;;;;;-4.08;69.91;99301.44;1789450;78;21045;-66
2021/12/29 09:47:49;;;;;;;12.53;6.77;;;;;;;-4.06;69.90;99303.61;1790724;78;21102;-65
2021/12/29 09:50:18;;;;;;;20.53;8.63;;;;;;;-4.04;69.81;99304.50;1791985;78;21398;-68
2021/12/29 09:52:44;;;;;;;25.17;10.23;;;;;;;-4.02;69.77;99308.89;1795401;78;21803;-65
2021/12/29 09:55:13;;;;;;;18.97;9.37;;;;;;;-4.00;69.71;99307.16;1795625;78;21335;-67
2021/12/29 09:57:44;;;;;;;24.93;10.63;;;;;;;-3.95;69.59;99307.16;1796591;78;20904;-64
2021/12/29 10:00:23;;;;;;;18.53;9.17;;;;;;;-3.95;69.54;99302.77;1793476;78;21142;-68
2021/12/29 10:02:49;;;;;;;21.00;9.13;;;;;;;-3.91;69.50;99308.89;1787878;78;21290;-66
2021/12/29 10:05:15;;;;;;;16.47;7.67;;;;;;;-3.90;69.32;99308.03;1793468;78;21136;-68
2021/12/29 10:07:42;;;;;;;17.10;8.93;;;;;;;-3.90;69.24;99302.33;1793725;78;21124;-65
2021/12/29 10:10:19;;;;;;;15.87;8.70;;;;;;;-3.87;69.15;99301.04;1790834;78;21234;-66
2021/12/29 10:12:46;;;;;;;18.10;10.07;;;;;;;-3.87;69.07;99299.72;1794294;78;21075;-68
2021/12/29 10:15:12;;;;;;;16.63;8.70;;;;;;;-3.87;69.03;99304.98;1786229;78;21503;-65
2021/12/29 10:17:39;;;;;;;20.03;9.80;;;;;;;-3.87;69.05;99298.41;1768145;79;21177;-68
2021/12/29 10:20:13;;;;;;;18.97;9.40;;;;;;;-3.86;69.02;99305.42;1792076;78;21068;-67
2021/12/29 10:22:41;;;;;;;21.20;9.37;;;;;;;-3.85;68.96;99297.11;1788461;78;21020;-66
2021/12/29 10:25:15;;;;;;;18.90;10.60;;;;;;;-3.86;68.88;99295.34;1803838;77;21046;-67
2021/12/29 10:27:43;;;;;;;20.50;10.70;;;;;;;-3.85;68.90;99294.47;1793097;78;21561;-66
2021/12/29 10:30:27;;;;;;;18.40;8.37;;;;;;;-3.81;68.97;99299.72;1773543;78;21628;-63
2021/12/29 10:32:58;;;;;;;14.90;7.90;;;;;;;-3.77;68.83;99298.42;1793882;78;22166;-70
2021/12/29 10:35:29;;;;;;;13.23;8.10;;;;;;;-3.76;68.75;99307.64;1779038;79;21006;-65
2021/12/29 10:38:18;;;;;;;14.43;8.20;;;;;;;-3.76;68.74;99289.23;1777784;79;21314;-66
2021/12/29 10:40:45;;;;;;;20.20;9.63;;;;;;;-3.75;68.76;99284.85;1778042;79;22217;-68
2021/12/29 10:43:13;;;;;;;13.70;8.07;;;;;;;-3.69;68.69;99294.05;1766768;79;21121;-69
2021/12/29 10:45:43;;;;;;;19.77;8.57;;;;;;;-3.69;68.42;99297.56;1791581;78;20970;-67
2021/12/29 10:48:25;;;;;;;15.60;9.33;;;;;;;-3.74;68.37;99293.19;1771015;78;20916;-66
2021/12/29 10:51:04;;;;;;;17.20;8.70;;;;;;;-3.77;68.42;99291.85;1777823;78;21017;-66
2021/12/29 10:53:36;;;;;;;16.00;8.90;;;;;;;-3.77;68.41;99287.91;1805392;77;21131;-63
2021/12/29 10:56:04;;;;;;;18.10;8.60;;;;;;;-3.80;68.29;99290.09;1777986;78;21850;-67
2021/12/29 10:58:33;;;;;;;16.90;7.77;;;;;;;-3.88;68.32;99290.52;1781115;79;21084;-67
2021/12/29 11:01:11;;;;;;;16.63;9.30;;;;;;;-3.93;68.46;99292.27;1761981;79;20956;-65
2021/12/29 11:03:47;;;;;;;18.90;7.73;;;;;;;-3.95;68.56;99287.44;1779151;78;20973;-68
2021/12/29 11:06:16;;;;;;;18.62;8.80;;;;;;;-3.93;68.69;99290.95;1779165;78;21108;-66
2021/12/29 11:08:53;;;;;;;15.90;8.20;;;;;;;-3.93;68.57;99282.63;1782541;78;21192;-65
2021/12/29 11:11:35;;;;;;;20.57;9.43;;;;;;;-3.93;68.67;99291.83;1804874;77;21042;-68
2021/12/29 11:14:18;;;;;;;21.63;11.83;;;;;;;-3.93;68.67;99293.58;1812224;77;20947;-64
2021/12/29 11:16:47;;;;;;;21.73;10.33;;;;;;;-3.90;68.84;99289.19;1781218;78;21058;-66
2021/12/29 11:19:13;;;;;;;21.57;11.00;;;;;;;-3.84;68.83;99291.85;1760221;79;21517;-69
2021/12/29 11:21:42;;;;;;;23.97;11.77;;;;;;;-3.78;68.86;99292.72;1783275;78;21163;-65
2021/12/29 11:24:25;;;;;;;21.97;12.50;;;;;;;-3.73;68.82;99295.79;1759294;79;21442;-66
2021/12/29 11:26:52;;;;;;;24.60;13.43;;;;;;;-3.69;68.66;99295.38;1748842;78;21777;-64
2021/12/29 11:29:21;;;;;;;34.57;17.60;;;;;;;-3.70;68.52;99297.55;1781703;78;22139;-66
2021/12/29 11:31:59;;;;;;;27.60;14.60;;;;;;;-3.72;68.50;99302.81;1785445;78;20933;-65
2021/12/29 11:34:27;;;;;;;25.07;13.77;;;;;;;-3.73;68.52;99300.17;1765282;79;21853;-66
2021/12/29 11:37:06;;;;;;;27.67;13.50;;;;;;;-3.73;68.54;99297.54;1811467;77;20894;-69
2021/12/29 11:39:38;;;;;;;21.77;11.70;;;;;;;-3.73;68.51;99301.05;1768268;77;20938;-65
2021/12/29 11:42:05;;;;;;;23.47;12.87;;;;;;;-3.75;68.56;99302.83;1814541;77;20926;-65
2021/12/29 11:44:32;;;;;;;25.30;13.33;;;;;;;-3.76;68.71;99307.64;1796282;78;20961;-69
2021/12/29 11:46:58;;;;;;;27.10;13.47;;;;;;;-3.72;68.69;99305.88;1799763;78;21406;-69